createdAt,value
2019-04-23T00:05:00.309Z,99663.97
2019-04-23T00:07:43.132Z,99661.11
2019-04-23T00:10:12.715Z,99665.32
2019-04-23T00:12:44.178Z,99665.50
2019-04-23T00:15:09.188Z,99667.50
2019-04-23T00:17:42.518Z,99669.15
2019-04-23T00:23:16.512Z,99666.47
2019-04-23T00:26:10.605Z,99589.45
2019-04-23T00:28:26.719Z,99667.87
2019-04-23T00:33:29.661Z,99668.86
2019-04-23T00:35:56.542Z,99665.94
2019-04-23T00:38:33.664Z,99668.23
2019-04-23T00:41:02.995Z,99669.55
2019-04-23T00:43:37.794Z,99669.75
2019-04-23T00:46:06.267Z,99680.11
2019-04-23T00:48:45.393Z,99678.11
2019-04-23T00:51:02.256Z,99681.42
2019-04-23T00:53:38.625Z,99680.09
2019-04-23T00:56:26.409Z,99684.44
2019-04-23T00:58:52.860Z,99685.36
2019-04-23T01:01:11.299Z,99679.33
2019-04-23T01:03:48.284Z,99683.81
2019-04-23T01:06:21.130Z,99686.50
2019-04-23T01:08:44.159Z,99687.33
2019-04-23T01:13:49.487Z,99692.77
2019-04-23T01:18:58.176Z,99697.23
2019-04-23T01:21:15.835Z,99697.89
2019-04-23T01:24:15.988Z,99693.16
2019-04-23T01:27:39.758Z,99694.61
2019-04-23T01:29:57.897Z,99689.21
2019-04-23T01:32:28.947Z,99701.11
2019-04-23T01:35:06.575Z,99705.79
2019-04-23T01:37:30.457Z,99702.27
2019-04-23T01:40:09.720Z,99713.19
2019-04-23T01:42:44.051Z,99714.64
2019-04-23T01:45:11.743Z,99717.39
2019-04-23T01:47:38.851Z,99723.38
2019-04-23T01:52:48.235Z,99539.91
2019-04-23T01:55:15.486Z,99733.67
2019-04-23T01:57:47.218Z,99738.17
2019-04-23T02:00:16.156Z,99739.01
2019-04-23T02:02:49.827Z,99737.59
2019-04-23T02:05:22.914Z,99746.77
2019-04-23T02:08:04.728Z,99754.06
2019-04-23T02:10:42.627Z,99758.16
2019-04-23T02:12:57.037Z,99755.22
2019-04-23T02:15:25.884Z,99756.56
2019-04-23T02:17:58.573Z,99765.73
2019-04-23T02:25:50.527Z,99764.50
2019-04-23T02:28:31.174Z,99768.02
2019-04-23T02:33:34.550Z,99772.30
2019-04-23T02:43:59.599Z,99772.45
2019-04-23T02:46:05.720Z,99765.74
2019-04-23T02:48:43.899Z,99759.06
2019-04-23T02:51:13.238Z,99761.53
2019-04-23T03:03:54.387Z,99752.53
2019-04-23T03:06:24.262Z,99760.80
2019-04-23T03:08:53.024Z,99765.66
2019-04-23T03:11:28.170Z,99767.11
2019-04-23T03:14:00.370Z,99766.56
2019-04-23T03:16:54.762Z,99770.74
2019-04-23T03:20:06.028Z,99770.89
2019-04-23T03:22:14.600Z,99775.16
2019-04-23T03:40:13.759Z,99803.37
2019-04-23T03:42:42.464Z,99806.99
2019-04-23T03:45:16.995Z,99641.31
2019-04-23T03:48:03.093Z,99812.77
2019-04-23T03:50:14.940Z,99819.67
2019-04-23T03:52:39.156Z,99819.16
2019-04-23T03:55:19.079Z,99821.05
2019-04-23T04:03:02.153Z,99759.88
2019-04-23T04:05:33.718Z,99818.75
2019-04-23T04:10:25.615Z,99822.41
2019-04-23T04:15:41.647Z,99825.48
2019-04-23T04:18:13.912Z,99830.25
2019-04-23T04:25:44.856Z,99835.98
2019-04-23T04:30:43.165Z,99832.79
2019-04-23T04:33:47.226Z,99835.30
2019-04-23T04:36:10.691Z,99833.87
2019-04-23T04:41:01.310Z,99841.61
2019-04-23T04:46:12.353Z,99848.11
2019-04-23T04:56:16.600Z,99855.20
2019-04-23T05:01:23.296Z,99863.41
2019-04-23T05:03:29.788Z,99862.64
2019-04-23T05:08:49.235Z,99858.08
2019-04-23T05:11:28.175Z,99859.60
2019-04-23T05:14:00.062Z,99862.08
2019-04-23T05:16:24.271Z,99857.81
2019-04-23T05:21:46.595Z,99852.59
2019-04-23T05:24:08.586Z,99852.95
2019-04-23T05:26:29.970Z,99856.50
2019-04-23T05:29:11.172Z,99850.77
2019-04-23T05:31:44.468Z,99853.98
2019-04-23T05:34:19.609Z,99853.16
2019-04-23T05:36:51.121Z,99859.22
2019-04-23T05:39:26.890Z,99868.02
2019-04-23T05:41:49.390Z,99863.13
2019-04-23T05:46:56.375Z,99868.86
2019-04-23T05:49:24.806Z,99874.84
2019-04-23T05:51:57.418Z,99880.09
2019-04-23T05:54:37.521Z,99893.10
2019-04-23T05:56:58.389Z,99892.22
2019-04-23T05:59:33.024Z,99890.09
2019-04-23T06:02:07.552Z,99900.16
2019-04-23T06:07:15.111Z,99899.59
2019-04-23T06:09:31.187Z,99910.20
2019-04-23T06:14:39.102Z,99908.30
2019-04-23T06:17:15.219Z,99911.88
2019-04-23T06:19:32.727Z,99913.93
2019-04-23T06:24:44.326Z,99914.46
2019-04-23T13:23:49.195Z,99773.27
2019-04-23T13:26:26.294Z,99789.53
2019-04-23T13:29:07.804Z,99778.75
2019-04-23T13:31:32.733Z,99757.80
2019-04-23T13:34:04.975Z,99742.70
2019-04-23T13:36:36.226Z,99733.30
2019-04-23T13:39:14.728Z,99735.08
2019-04-23T13:41:53.971Z,99741.75
2019-04-23T13:44:13.377Z,99742.40
2019-04-23T13:46:39.890Z,99743.70
2019-04-23T13:49:23.564Z,99743.13
2019-04-23T13:52:06.080Z,99730.91
2019-04-23T13:54:39.453Z,99727.14
2019-04-23T13:59:29.038Z,99729.32
2019-04-23T14:01:46.802Z,99726.97
2019-04-23T14:04:45.068Z,99714.66
2019-04-23T14:07:10.260Z,99720.34
2019-04-23T14:09:47.192Z,99712.62
2019-04-23T14:12:08.347Z,99704.70
2019-04-23T14:17:26.844Z,99714.41
2019-04-23T14:19:47.221Z,99726.27
2019-04-23T14:22:45.042Z,99717.67
2019-04-23T14:25:07.929Z,99724.62
2019-04-23T14:30:07.177Z,99745.28
2019-04-23T14:32:28.687Z,99745.81
2019-04-23T14:35:11.486Z,99745.91
2019-04-23T14:37:22.160Z,99742.81
2019-04-23T14:40:22.228Z,99737.56
2019-04-23T14:43:03.985Z,99742.48
2019-04-23T14:48:00.934Z,99718.80
2019-04-23T14:58:18.150Z,99635.12
2019-04-23T15:00:43.402Z,99654.73
2019-04-23T15:05:45.083Z,99661.66
2019-04-23T15:08:15.275Z,99657.36
2019-04-23T15:10:57.417Z,99658.95
2019-04-23T15:13:22.716Z,99659.07
2019-04-23T15:15:53.951Z,99649.89
2019-04-23T15:23:51.523Z,99644.23
2019-04-23T15:27:10.368Z,99650.91
2019-04-23T15:28:20.185Z,99653.18
2019-04-23T15:31:18.934Z,99646.75
2019-04-23T15:33:56.565Z,99641.39
2019-04-23T15:36:32.686Z,99636.42
2019-04-23T15:41:29.450Z,99652.92
2019-04-23T15:43:57.524Z,99657.06
2019-04-23T15:46:37.066Z,99648.77
2019-04-23T15:49:17.824Z,99638.88
2019-04-23T15:54:04.110Z,99644.77
2019-04-23T15:59:13.065Z,99646.12
2019-04-23T16:01:35.082Z,99658.17
2019-04-23T16:03:41.887Z,99668.39
2019-04-23T16:06:12.739Z,99672.17
2019-04-23T16:11:44.190Z,99672.45
2019-04-23T16:14:25.388Z,99670.68
2019-04-23T16:17:06.681Z,99658.84
2019-04-23T16:19:42.903Z,99661.73
2019-04-23T16:22:10.765Z,99657.20
2019-04-23T16:24:52.972Z,99662.77
2019-04-23T16:27:41.630Z,99669.95
2019-04-23T16:32:33.060Z,99701.03
2019-04-23T16:35:10.942Z,99705.36
2019-04-23T16:37:28.870Z,99677.76
2019-04-23T16:40:16.425Z,99711.27
2019-04-23T16:42:30.927Z,99709.92
2019-04-23T16:52:34.872Z,99695.53
2019-04-23T16:55:23.994Z,99572.10
2019-04-23T16:58:01.485Z,99705.85
2019-04-23T17:00:25.989Z,99710.19
2019-04-23T17:02:45.879Z,99714.59
2019-04-23T17:05:21.655Z,99713.61
2019-04-23T17:07:54.066Z,99634.56
2019-04-23T17:10:19.212Z,99710.30
2019-04-23T17:12:54.727Z,99720.24
2019-04-23T17:15:29.685Z,99728.72
2019-04-23T17:17:58.365Z,99726.81
2019-04-23T17:20:30.934Z,99734.48
2019-04-23T17:23:07.425Z,99737.48
2019-04-23T17:25:28.370Z,99739.06
2019-04-23T17:28:17.058Z,99746.17
2019-04-23T17:30:37.701Z,99761.57
2019-04-23T17:33:21.270Z,99760.56
2019-04-23T17:36:18.505Z,99754.39
2019-04-23T17:38:51.054Z,99761.95
2019-04-23T17:41:32.811Z,99745.65
2019-04-23T17:44:09.538Z,99749.70
2019-04-23T17:46:27.071Z,99750.23
2019-04-23T17:49:04.680Z,99748.48
2019-04-23T17:51:37.766Z,99740.20
2019-04-23T17:54:10.965Z,99748.02
2019-04-23T17:57:05.312Z,99737.02
2019-04-23T17:59:14.070Z,99744.34
2019-04-23T18:01:54.238Z,99737.05
2019-04-23T18:04:27.521Z,99744.95
2019-04-23T18:06:54.062Z,99749.31
2019-04-23T18:09:34.397Z,99752.29
2019-04-23T18:12:09.188Z,99741.20
2019-04-23T18:14:18.289Z,99733.22
2019-04-23T18:16:55.516Z,99727.97
2019-04-23T18:19:23.086Z,99708.95
2019-04-23T18:27:31.375Z,99720.02
2019-04-23T18:35:29.681Z,99718.22
2019-04-23T18:38:05.226Z,99710.69
2019-04-23T18:40:38.908Z,99705.38
2019-04-23T18:51:21.427Z,99716.81
2019-04-23T18:57:25.213Z,99712.34
2019-04-23T18:59:52.007Z,99726.16
2019-04-23T19:08:00.989Z,99720.04
2019-04-23T19:10:36.074Z,99720.55
2019-04-23T19:13:18.678Z,99721.21
2019-04-23T19:18:24.068Z,99719.72
2019-04-23T19:23:25.750Z,99707.08
2019-04-23T19:25:50.224Z,99703.55
2019-04-23T19:31:05.609Z,99696.48
2019-04-23T19:34:11.758Z,99696.69
2019-04-23T19:36:13.768Z,99683.43
2019-04-23T19:38:36.343Z,99683.77
2019-04-23T19:41:10.778Z,99628.27
2019-04-23T19:43:49.127Z,99679.79
2019-04-23T19:46:22.021Z,99671.73
2019-04-23T19:48:57.974Z,99665.22
2019-04-23T19:51:17.124Z,99667.13
2019-04-23T19:58:54.443Z,99688.45
2019-04-23T20:01:23.938Z,99697.35
2019-04-23T20:03:53.651Z,99702.70
2019-04-23T20:06:52.185Z,99707.43
2019-04-23T20:11:38.088Z,99697.78
2019-04-23T20:14:02.321Z,99694.62
2019-04-23T20:16:40.140Z,99688.50
2019-04-23T20:21:44.406Z,99688.06
2019-04-23T20:24:21.547Z,99698.52
2019-04-23T20:26:45.827Z,99700.22
2019-04-23T20:29:45.125Z,99705.65
2019-04-23T20:35:06.579Z,99719.03
2019-04-23T20:40:04.215Z,99716.05
2019-04-23T20:42:48.188Z,99707.97
2019-04-23T20:47:45.904Z,99702.05
2019-04-23T20:50:04.163Z,99708.45
2019-04-23T20:52:41.147Z,99713.65
2019-04-23T20:55:50.640Z,99713.36
2019-04-23T20:57:55.309Z,99713.75
2019-04-23T21:05:50.397Z,99736.64
2019-04-23T21:08:22.405Z,99747.46
2019-04-23T21:10:58.313Z,99762.96
2019-04-23T21:16:04.952Z,99766.45
2019-04-23T21:18:31.575Z,99751.22
2019-04-23T21:25:52.498Z,99729.64
2019-04-23T21:28:43.009Z,99680.67
2019-04-23T21:31:06.079Z,99691.31
2019-04-23T21:33:48.148Z,99732.97
2019-04-23T21:36:40.217Z,99754.63
2019-04-23T21:39:40.685Z,99750.52
2019-04-23T21:42:24.211Z,99753.80
2019-04-23T21:44:57.956Z,99760.70
2019-04-23T21:47:25.760Z,99758.05
2019-04-23T21:50:10.700Z,99754.84
2019-04-23T21:52:30.352Z,99748.03
2019-04-23T21:55:00.515Z,99736.06
2019-04-23T21:57:41.970Z,99738.33
2019-04-23T21:59:59.340Z,99746.77
2019-04-23T22:02:36.157Z,99753.89
2019-04-23T22:07:49.445Z,99730.47
2019-04-23T22:12:46.764Z,99750.28
2019-04-23T22:15:07.208Z,99753.65
2019-04-23T22:17:46.237Z,99746.94
2019-04-23T22:20:22.465Z,99748.36
2019-04-23T22:22:56.894Z,99746.48
2019-04-23T22:25:17.920Z,99749.91
2019-04-23T22:27:48.410Z,99742.75
2019-04-23T22:30:22.371Z,99731.81
2019-04-23T22:32:59.374Z,99731.09
2019-04-23T22:35:43.228Z,99751.95
2019-04-23T22:38:09.204Z,99769.70
2019-04-23T22:40:25.104Z,99766.90
2019-04-23T22:45:40.260Z,99764.78
2019-04-23T22:48:04.723Z,99761.42
2019-04-23T22:50:38.652Z,99754.84
2019-04-23T22:53:08.019Z,99752.67
2019-04-23T22:55:41.078Z,99761.80
2019-04-23T23:00:46.965Z,99766.05
2019-04-23T23:03:24.359Z,99773.27
2019-04-23T23:08:20.840Z,99783.85
2019-04-23T23:10:56.981Z,99775.62
2019-04-23T23:13:35.107Z,99772.41
2019-04-23T23:16:05.477Z,99766.88
2019-04-23T23:23:39.432Z,99763.34
2019-04-23T23:28:35.253Z,99754.44
2019-04-23T23:31:06.843Z,99747.02
2019-04-23T23:33:42.976Z,99758.81
2019-04-23T23:38:57.416Z,99745.00
2019-04-23T23:41:20.377Z,99737.62
2019-04-23T23:48:54.872Z,99746.70
2019-04-23T23:54:00.301Z,99755.78
2019-04-23T23:59:04.280Z,99765.52
